Time;durP1;ratioP1;P1;durP2;ratioP2;P2;SDS_P1;SDS_P2;PMS_P1;PMS_P2;Temp;Humidity;BMP_temperature;BMP_pressure;BME280_temperature;BME280_humidity;BME280_pressure;Samples;Min_cycle;Max_cycle;Signal;HPM_P1;HPM_P2
2023/08/06 00:00:58;;;;;;;2.40;2.30;;;;;;;;;;5090772;28;20241;-62
2023/08/06 00:03:27;;;;;;;3.17;2.63;;;;;;;;;;5092087;28;20210;-62
2023/08/06 00:05:54;;;;;;;2.90;2.17;;;;;;;;;;5092333;28;20741;-61
2023/08/06 00:08:21;;;;;;;2.50;2.40;;;;;;;;;;5091820;28;20206;-61
2023/08/06 00:10:49;;;;;;;2.30;2.17;;;;;;;;;;5092075;28;20213;-61
2023/08/06 00:13:19;;;;;;;2.25;2.10;;;;;;;;;;5091993;28;20304;-61
2023/08/06 00:15:46;;;;;;;2.72;2.63;;;;;;;;;;5079597;28;20677;-61
2023/08/06 00:18:13;;;;;;;2.22;2.13;;;;;;;;;;5071715;28;20215;-61
2023/08/06 00:20:41;;;;;;;2.20;2.10;;;;;;;;;;5074408;28;20226;-62
2023/08/06 00:23:09;;;;;;;3.83;2.53;;;;;;;;;;5091882;28;20331;-61
2023/08/06 00:25:36;;;;;;;2.75;2.42;;;;;;;;;;5091391;28;20205;-62
2023/08/06 00:28:03;;;;;;;2.85;2.50;;;;;;;;;;5077110;28;20889;-62
2023/08/06 00:30:30;;;;;;;2.80;2.70;;;;;;;;;;5071046;28;20218;-62
2023/08/06 00:32:57;;;;;;;2.45;2.35;;;;;;;;;;5071555;28;20246;-61
2023/08/06 00:35:24;;;;;;;2.88;2.70;;;;;;;;;;5069846;28;20586;-62
2023/08/06 00:37:52;;;;;;;3.58;2.53;;;;;;;;;;5071138;28;20207;-62
2023/08/06 00:40:22;;;;;;;2.17;2.08;;;;;;;;;;5072814;28;20305;-61
2023/08/06 00:42:49;;;;;;;2.50;2.40;;;;;;;;;;5091553;28;20218;-61
2023/08/06 00:45:16;;;;;;;2.72;2.63;;;;;;;;;;5091415;28;20229;-61
2023/08/06 00:47:43;;;;;;;2.75;2.55;;;;;;;;;;5091399;28;20704;-61
2023/08/06 00:50:10;;;;;;;2.60;2.50;;;;;;;;;;5090908;28;20202;-61
2023/08/06 00:52:37;;;;;;;2.92;2.83;;;;;;;;;;5090671;28;20211;-61
2023/08/06 00:55:07;;;;;;;3.00;2.80;;;;;;;;;;5090388;28;20199;-62
2023/08/06 00:57:34;;;;;;;3.08;2.88;;;;;;;;;;5090823;28;20209;-61
2023/08/06 01:00:01;;;;;;;2.45;2.35;;;;;;;;;;5088565;28;20226;-62
2023/08/06 01:02:28;;;;;;;5.20;2.90;;;;;;;;;;5088407;28;20229;-62
2023/08/06 01:04:55;;;;;;;3.05;2.88;;;;;;;;;;5089263;28;20199;-61
2023/08/06 01:07:27;;;;;;;2.28;2.20;;;;;;;;;;5086790;28;20206;-61
2023/08/06 01:09:59;;;;;;;2.53;2.40;;;;;;;;;;5085589;28;20209;-62
2023/08/06 01:12:35;;;;;;;4.07;2.60;;;;;;;;;;5090088;28;20206;-62
2023/08/06 01:15:06;;;;;;;2.60;2.50;;;;;;;;;;5090467;28;20206;-62
2023/08/06 01:17:33;;;;;;;2.63;2.40;;;;;;;;;;5090344;28;20658;-62
2023/08/06 01:20:00;;;;;;;2.42;2.30;;;;;;;;;;5090336;28;20214;-61
2023/08/06 01:22:28;;;;;;;3.47;2.70;;;;;;;;;;5090104;28;20230;-61
2023/08/06 01:24:56;;;;;;;2.40;2.30;;;;;;;;;;5089933;28;20574;-61
2023/08/06 01:27:28;;;;;;;2.50;2.30;;;;;;;;;;5088560;28;20695;-61
2023/08/06 01:29:58;;;;;;;2.35;2.25;;;;;;;;;;5088945;28;20255;-61
2023/08/06 01:32:26;;;;;;;2.58;2.38;;;;;;;;;;5090543;28;20339;-61
2023/08/06 01:34:54;;;;;;;2.30;2.20;;;;;;;;;;5089921;28;20214;-62
2023/08/06 01:37:21;;;;;;;2.72;2.63;;;;;;;;;;5089429;28;20206;-62
2023/08/06 01:39:49;;;;;;;2.60;2.50;;;;;;;;;;5090218;28;20210;-62
2023/08/06 01:42:16;;;;;;;2.90;2.38;;;;;;;;;;5090523;28;20226;-62
2023/08/06 01:44:43;;;;;;;2.25;2.15;;;;;;;;;;5089936;28;20237;-62
2023/08/06 01:47:10;;;;;;;4.32;2.60;;;;;;;;;;5089204;28;20206;-62
2023/08/06 01:49:37;;;;;;;2.58;2.47;;;;;;;;;;5089835;28;20207;-61
2023/08/06 01:52:05;;;;;;;2.75;2.65;;;;;;;;;;5089825;28;20229;-61
2023/08/06 01:54:32;;;;;;;6.78;2.90;;;;;;;;;;5089822;28;20202;-61
2023/08/06 01:57:00;;;;;;;2.03;1.92;;;;;;;;;;5089845;28;20259;-61
2023/08/06 01:59:27;;;;;;;2.55;2.45;;;;;;;;;;5088831;28;20225;-61
2023/08/06 02:01:54;;;;;;;3.67;2.25;;;;;;;;;;5069390;28;20558;-60
2023/08/06 02:04:21;;;;;;;2.85;2.65;;;;;;;;;;5069418;28;20210;-61
2023/08/06 02:06:48;;;;;;;2.20;2.10;;;;;;;;;;5081214;28;20207;-61
2023/08/06 02:09:15;;;;;;;2.05;2.05;;;;;;;;;;5089262;28;20245;-61
2023/08/06 02:11:42;;;;;;;3.20;2.05;;;;;;;;;;5089613;28;20203;-62
2023/08/06 02:14:11;;;;;;;3.22;2.30;;;;;;;;;;5089175;28;20194;-61
2023/08/06 02:16:38;;;;;;;2.50;2.40;;;;;;;;;;5089062;28;20202;-61
2023/08/06 02:19:05;;;;;;;2.47;2.13;;;;;;;;;;5089382;28;20214;-61
2023/08/06 02:21:32;;;;;;;1.92;1.92;;;;;;;;;;5089013;28;20226;-61
2023/08/06 02:23:59;;;;;;;2.20;2.10;;;;;;;;;;5088165;28;20664;-62
2023/08/06 02:26:26;;;;;;;2.13;1.95;;;;;;;;;;5089067;28;20203;-61
2023/08/06 02:28:53;;;;;;;2.00;1.90;;;;;;;;;;5089296;28;20206;-62
2023/08/06 02:31:22;;;;;;;2.10;2.00;;;;;;;;;;5089059;28;20241;-61
2023/08/06 02:33:49;;;;;;;1.90;1.80;;;;;;;;;;5089174;28;20210;-61
2023/08/06 02:36:16;;;;;;;4.85;1.98;;;;;;;;;;5088943;28;20195;-62
2023/08/06 02:38:43;;;;;;;4.45;1.90;;;;;;;;;;5088434;28;20673;-61
2023/08/06 02:41:10;;;;;;;3.97;2.28;;;;;;;;;;5088770;28;20210;-61
2023/08/06 02:43:37;;;;;;;2.28;2.00;;;;;;;;;;5088458;28;20222;-61
2023/08/06 02:46:04;;;;;;;1.75;1.65;;;;;;;;;;5088800;28;20198;-61
2023/08/06 02:48:32;;;;;;;1.75;1.75;;;;;;;;;;5088242;28;20221;-62
2023/08/06 02:51:00;;;;;;;2.30;2.00;;;;;;;;;;5088846;28;20198;-61
2023/08/06 02:53:27;;;;;;;2.85;2.00;;;;;;;;;;5088731;28;20217;-62
2023/08/06 02:55:55;;;;;;;3.53;1.70;;;;;;;;;;5088324;28;20214;-61
2023/08/06 02:58:22;;;;;;;3.33;1.90;;;;;;;;;;5088787;28;20267;-62
2023/08/06 03:01:00;;;;;;;1.88;1.88;;;;;;;;;;5068569;28;20199;-61
2023/08/06 03:03:27;;;;;;;3.08;1.67;;;;;;;;;;5077838;28;20222;-61
2023/08/06 03:05:56;;;;;;;1.90;1.90;;;;;;;;;;5088615;28;20732;-61
2023/08/06 03:08:23;;;;;;;2.92;1.80;;;;;;;;;;5088156;28;20198;-61
2023/08/06 03:10:50;;;;;;;2.63;1.80;;;;;;;;;;5088161;28;20209;-61
2023/08/06 03:13:17;;;;;;;2.15;1.95;;;;;;;;;;5088546;28;20205;-61
2023/08/06 03:15:44;;;;;;;1.95;1.77;;;;;;;;;;5088005;28;20606;-61
2023/08/06 03:18:11;;;;;;;1.60;1.60;;;;;;;;;;5088048;28;20233;-61
2023/08/06 03:20:38;;;;;;;2.13;1.50;;;;;;;;;;5088411;28;20230;-62
2023/08/06 03:23:07;;;;;;;2.10;2.00;;;;;;;;;;5088072;28;20237;-61
2023/08/06 03:25:36;;;;;;;1.40;1.40;;;;;;;;;;5088192;28;20229;-61
2023/08/06 03:28:03;;;;;;;1.65;1.65;;;;;;;;;;5087984;28;20664;-61
2023/08/06 03:30:30;;;;;;;1.55;1.55;;;;;;;;;;5088065;28;20721;-61
2023/08/06 03:32:57;;;;;;;1.88;1.65;;;;;;;;;;5088051;28;20238;-61
2023/08/06 03:35:24;;;;;;;1.80;1.70;;;;;;;;;;5087495;28;20206;-61
2023/08/06 03:37:51;;;;;;;1.63;1.55;;;;;;;;;;5087821;28;20581;-62
2023/08/06 03:40:20;;;;;;;1.60;1.50;;;;;;;;;;5087439;28;20691;-61
2023/08/06 03:42:47;;;;;;;2.00;1.90;;;;;;;;;;5087597;28;20219;-62
2023/08/06 03:45:14;;;;;;;2.10;1.50;;;;;;;;;;5088051;28;20217;-62
2023/08/06 03:47:41;;;;;;;1.70;1.60;;;;;;;;;;5088108;28;20202;-62
2023/08/06 03:50:08;;;;;;;1.50;1.40;;;;;;;;;;5087653;28;20758;-61
2023/08/06 03:52:35;;;;;;;1.48;1.30;;;;;;;;;;5087598;28;21024;-62
2023/08/06 03:55:02;;;;;;;1.20;1.20;;;;;;;;;;5087785;28;20207;-62
2023/08/06 03:57:31;;;;;;;1.67;1.50;;;;;;;;;;5087752;28;20271;-62
2023/08/06 03:59:58;;;;;;;1.20;1.20;;;;;;;;;;5087721;28;20979;-61
2023/08/06 04:02:25;;;;;;;1.55;1.40;;;;;;;;;;5087995;28;20226;-61
2023/08/06 04:04:53;;;;;;;1.45;1.38;;;;;;;;;;5087916;28;20213;-61
2023/08/06 04:07:20;;;;;;;1.08;1.08;;;;;;;;;;5087239;28;20208;-61
2023/08/06 04:09:54;;;;;;;1.45;1.25;;;;;;;;;;5087621;28;20244;-61
2023/08/06 04:12:21;;;;;;;1.40;1.30;;;;;;;;;;5087457;28;20249;-61
2023/08/06 04:14:50;;;;;;;1.25;1.10;;;;;;;;;;5087785;28;20217;-61
2023/08/06 04:17:20;;;;;;;1.67;1.13;;;;;;;;;;5087337;28;20695;-61
2023/08/06 04:19:47;;;;;;;1.27;1.10;;;;;;;;;;5087616;28;20320;-61
2023/08/06 04:22:14;;;;;;;4.00;0.93;;;;;;;;;;5087337;28;20230;-61
2023/08/06 04:24:41;;;;;;;0.77;0.77;;;;;;;;;;5087689;28;20207;-61
2023/08/06 04:27:08;;;;;;;0.70;0.70;;;;;;;;;;5087378;28;20248;-61
2023/08/06 04:29:35;;;;;;;0.73;0.73;;;;;;;;;;5068062;28;20211;-61
2023/08/06 04:32:03;;;;;;;0.52;0.52;;;;;;;;;;5080121;28;20237;-60
2023/08/06 04:34:30;;;;;;;0.60;0.60;;;;;;;;;;5086681;28;20221;-61
2023/08/06 04:36:57;;;;;;;1.35;0.75;;;;;;;;;;5087028;28;20213;-61
2023/08/06 04:39:24;;;;;;;0.40;0.40;;;;;;;;;;5087593;28;20214;-61
2023/08/06 04:41:51;;;;;;;2.97;0.60;;;;;;;;;;5086971;28;20613;-60
2023/08/06 04:44:18;;;;;;;0.43;0.40;;;;;;;;;;5086849;28;20230;-60
2023/08/06 04:46:45;;;;;;;1.92;0.60;;;;;;;;;;5088431;28;20203;-59
2023/08/06 04:49:14;;;;;;;1.52;0.60;;;;;;;;;;5090804;28;20202;-59
2023/08/06 04:51:41;;;;;;;0.73;0.50;;;;;;;;;;5089868;28;20260;-60
2023/08/06 04:54:11;;;;;;;4.15;0.70;;;;;;;;;;5078286;28;20202;-60
2023/08/06 04:56:38;;;;;;;3.30;0.50;;;;;;;;;;5083946;28;20203;-59
2023/08/06 04:59:05;;;;;;;0.60;0.55;;;;;;;;;;5080821;28;20668;-59
2023/08/06 05:01:32;;;;;;;0.70;0.70;;;;;;;;;;5078782;28;20202;-60
2023/08/06 05:03:59;;;;;;;0.65;0.63;;;;;;;;;;5087710;28;20689;-59
2023/08/06 05:06:28;;;;;;;1.00;0.70;;;;;;;;;;5072901;28;20217;-59
2023/08/06 05:08:55;;;;;;;0.60;0.60;;;;;;;;;;5081937;28;20203;-60
2023/08/06 05:11:22;;;;;;;0.70;0.70;;;;;;;;;;5088931;28;20267;-59
2023/08/06 05:13:49;;;;;;;2.03;0.77;;;;;;;;;;5088985;28;20660;-59
2023/08/06 05:16:16;;;;;;;0.63;0.63;;;;;;;;;;5070541;28;20211;-59
2023/08/06 05:18:43;;;;;;;0.60;0.60;;;;;;;;;;5070792;28;20215;-59
2023/08/06 05:21:10;;;;;;;0.57;0.52;;;;;;;;;;5074177;28;20668;-59
2023/08/06 05:23:38;;;;;;;0.77;0.63;;;;;;;;;;5088051;28;20222;-60
2023/08/06 05:26:06;;;;;;;0.55;0.50;;;;;;;;;;5077452;28;20233;-60
2023/08/06 05:28:33;;;;;;;0.60;0.60;;;;;;;;;;5090975;28;20909;-60
2023/08/06 05:31:00;;;;;;;0.55;0.55;;;;;;;;;;5090355;28;20210;-60
2023/08/06 05:33:27;;;;;;;1.88;0.70;;;;;;;;;;5090487;28;20209;-60
2023/08/06 05:35:54;;;;;;;0.50;0.50;;;;;;;;;;5090074;28;20209;-60
2023/08/06 05:38:21;;;;;;;0.68;0.50;;;;;;;;;;5090160;28;20560;-60
2023/08/06 05:40:49;;;;;;;0.85;0.50;;;;;;;;;;5090208;28;20213;-60
2023/08/06 05:43:16;;;;;;;0.30;0.30;;;;;;;;;;5090028;28;20226;-59
2023/08/06 05:45:46;;;;;;;0.45;0.45;;;;;;;;;;5090305;28;20229;-60
2023/08/06 05:48:13;;;;;;;0.60;0.60;;;;;;;;;;5089643;28;20619;-60
2023/08/06 05:50:40;;;;;;;0.40;0.40;;;;;;;;;;5090014;28;20233;-59
2023/08/06 05:53:07;;;;;;;0.20;0.20;;;;;;;;;;5089768;28;21979;-59
2023/08/06 05:55:35;;;;;;;0.30;0.30;;;;;;;;;;5089830;28;20207;-59
2023/08/06 05:58:03;;;;;;;0.35;0.35;;;;;;;;;;5089213;28;20293;-59
2023/08/06 06:00:30;;;;;;;0.38;0.32;;;;;;;;;;5088484;28;20605;-59
2023/08/06 06:02:57;;;;;;;0.30;0.30;;;;;;;;;;5078964;28;20222;-59
2023/08/06 06:05:24;;;;;;;1.45;0.28;;;;;;;;;;5069340;28;20219;-59
2023/08/06 06:07:51;;;;;;;1.33;0.30;;;;;;;;;;5076016;28;20198;-59
2023/08/06 06:10:18;;;;;;;0.80;0.80;;;;;;;;;;5072898;28;20210;-59
2023/08/06 06:12:45;;;;;;;0.10;0.10;;;;;;;;;;5089566;28;20656;-58
2023/08/06 06:15:14;;;;;;;0.28;0.20;;;;;;;;;;5089703;28;20318;-61
2023/08/06 06:17:41;;;;;;;0.55;0.22;;;;;;;;;;5089485;28;20210;-59
2023/08/06 06:20:08;;;;;;;1.00;0.25;;;;;;;;;;5089230;28;20292;-63
2023/08/06 06:22:35;;;;;;;0.20;0.20;;;;;;;;;;5089049;28;20728;-59
2023/08/06 06:25:03;;;;;;;0.10;0.10;;;;;;;;;;5089913;28;20402;-60
2023/08/06 06:27:30;;;;;;;0.20;0.20;;;;;;;;;;5089629;28;20213;-60
2023/08/06 06:29:57;;;;;;;0.63;0.20;;;;;;;;;;5088823;28;20210;-62
2023/08/06 06:32:25;;;;;;;0.10;0.10;;;;;;;;;;5088851;28;20229;-61
2023/08/06 06:34:52;;;;;;;2.80;0.25;;;;;;;;;;5088898;28;20202;-59
2023/08/06 06:37:19;;;;;;;0.20;0.20;;;;;;;;;;5089032;28;20810;-59
2023/08/06 06:39:46;;;;;;;0.40;0.10;;;;;;;;;;5088920;28;20288;-60
2023/08/06 06:42:14;;;;;;;1.23;0.30;;;;;;;;;;5088499;28;20221;-60
2023/08/06 06:44:42;;;;;;;1.10;0.17;;;;;;;;;;5088259;28;20222;-60
2023/08/06 06:47:09;;;;;;;0.45;0.20;;;;;;;;;;5084009;28;20535;-60
2023/08/06 06:49:37;;;;;;;0.10;0.10;;;;;;;;;;5089196;28;20210;-60
2023/08/06 06:52:04;;;;;;;0.20;0.20;;;;;;;;;;5080990;28;20241;-60
2023/08/06 06:54:31;;;;;;;0.47;0.20;;;;;;;;;;5079946;28;20210;-59
2023/08/06 06:56:58;;;;;;;0.20;0.20;;;;;;;;;;5087646;28;20234;-60
2023/08/06 06:59:26;;;;;;;0.25;0.10;;;;;;;;;;5088405;28;20715;-59
2023/08/06 07:01:53;;;;;;;0.75;0.20;;;;;;;;;;5087642;28;20202;-60
2023/08/06 07:04:20;;;;;;;1.75;0.30;;;;;;;;;;5088045;28;20329;-60
2023/08/06 07:06:48;;;;;;;0.20;0.20;;;;;;;;;;5086823;28;20202;-62
2023/08/06 07:09:16;;;;;;;0.55;0.25;;;;;;;;;;5087825;28;20203;-62
2023/08/06 07:11:43;;;;;;;1.00;0.20;;;;;;;;;;5088362;28;20220;-60
2023/08/06 07:14:11;;;;;;;0.25;0.25;;;;;;;;;;5087944;28;20708;-60
2023/08/06 07:16:38;;;;;;;0.20;0.20;;;;;;;;;;5087781;28;20202;-60
2023/08/06 07:19:07;;;;;;;0.20;0.20;;;;;;;;;;5087344;28;20206;-60
2023/08/06 07:21:34;;;;;;;0.38;0.22;;;;;;;;;;5083809;28;20217;-60
2023/08/06 07:24:02;;;;;;;0.10;0.10;;;;;;;;;;5067932;28;20782;-60
2023/08/06 07:26:29;;;;;;;0.10;0.10;;;;;;;;;;5068106;28;20215;-60
2023/08/06 07:28:56;;;;;;;0.10;0.10;;;;;;;;;;5077534;28;20210;-60
2023/08/06 07:31:23;;;;;;;0.20;0.10;;;;;;;;;;5087261;28;20234;-59
2023/08/06 07:33:50;;;;;;;0.10;0.10;;;;;;;;;;5088166;28;20288;-60
2023/08/06 07:36:17;;;;;;;0.20;0.20;;;;;;;;;;5087449;28;20225;-60
2023/08/06 07:38:44;;;;;;;0.10;0.10;;;;;;;;;;5085242;28;20235;-59
2023/08/06 07:41:13;;;;;;;0.65;0.20;;;;;;;;;;5087790;28;20217;-59
2023/08/06 07:43:40;;;;;;;0.10;0.10;;;;;;;;;;5087629;28;20222;-59
2023/08/06 07:46:07;;;;;;;0.10;0.10;;;;;;;;;;5087842;28;20218;-60
2023/08/06 07:48:34;;;;;;;1.02;0.30;;;;;;;;;;5087120;28;20218;-60
2023/08/06 07:51:01;;;;;;;0.28;0.10;;;;;;;;;;5086878;28;20202;-59
2023/08/06 07:53:29;;;;;;;0.20;0.20;;;;;;;;;;5085257;28;20696;-60
2023/08/06 07:55:56;;;;;;;0.10;0.10;;;;;;;;;;5075832;28;20834;-60
2023/08/06 07:58:24;;;;;;;0.10;0.10;;;;;;;;;;5071485;28;20211;-60
2023/08/06 08:00:51;;;;;;;0.20;0.20;;;;;;;;;;5072047;28;20202;-60
2023/08/06 08:03:19;;;;;;;0.22;0.22;;;;;;;;;;5087566;28;20218;-59
2023/08/06 08:05:46;;;;;;;0.38;0.20;;;;;;;;;;5087663;28;20226;-60
2023/08/06 08:08:13;;;;;;;0.43;0.20;;;;;;;;;;5086904;28;20218;-59
2023/08/06 08:10:40;;;;;;;0.20;0.20;;;;;;;;;;5087143;28;20280;-59
2023/08/06 08:13:07;;;;;;;0.20;0.20;;;;;;;;;;5086592;28;20209;-59
2023/08/06 08:15:36;;;;;;;0.47;0.17;;;;;;;;;;5075400;28;20734;-59
2023/08/06 08:18:03;;;;;;;0.20;0.20;;;;;;;;;;5077749;28;20589;-61
2023/08/06 08:20:31;;;;;;;0.10;0.10;;;;;;;;;;5087771;28;20199;-62
2023/08/06 08:22:59;;;;;;;0.20;0.20;;;;;;;;;;5089685;28;20267;-61
2023/08/06 08:25:26;;;;;;;0.30;0.30;;;;;;;;;;5091292;28;20194;-61
2023/08/06 08:27:53;;;;;;;0.28;0.28;;;;;;;;;;5084175;28;20210;-60
2023/08/06 08:30:20;;;;;;;0.20;0.20;;;;;;;;;;5087861;28;20210;-60
2023/08/06 08:32:49;;;;;;;0.80;0.20;;;;;;;;;;5088113;28;20234;-60
2023/08/06 08:35:16;;;;;;;0.20;0.20;;;;;;;;;;5080625;28;20766;-60
2023/08/06 08:37:43;;;;;;;0.85;0.30;;;;;;;;;;5090552;28;20209;-60
2023/08/06 08:40:11;;;;;;;0.20;0.20;;;;;;;;;;5090197;28;20684;-61
2023/08/06 08:42:38;;;;;;;0.10;0.10;;;;;;;;;;5091042;28;20218;-60
2023/08/06 08:45:06;;;;;;;0.30;0.30;;;;;;;;;;5090630;28;20700;-60
2023/08/06 08:47:33;;;;;;;0.30;0.30;;;;;;;;;;5085451;28;20198;-64
2023/08/06 08:50:02;;;;;;;0.85;0.30;;;;;;;;;;5090498;28;20206;-63
2023/08/06 08:52:30;;;;;;;0.20;0.20;;;;;;;;;;5090430;28;20225;-65
2023/08/06 08:54:57;;;;;;;0.20;0.20;;;;;;;;;;5090434;28;20906;-64
2023/08/06 08:57:24;;;;;;;0.20;0.20;;;;;;;;;;5089001;28;20206;-64
2023/08/06 08:59:51;;;;;;;0.50;0.20;;;;;;;;;;5087448;28;20217;-64
2023/08/06 09:02:19;;;;;;;0.28;0.25;;;;;;;;;;5088056;28;20206;-64
2023/08/06 09:04:48;;;;;;;0.45;0.17;;;;;;;;;;5086776;28;20222;-64
2023/08/06 09:07:19;;;;;;;0.13;0.10;;;;;;;;;;5089910;28;20681;-64
2023/08/06 09:12:56;;;;;;;0.10;0.10;;;;;;;;;;5083155;28;20206;-65
2023/08/06 09:15:25;;;;;;;0.10;0.10;;;;;;;;;;5088117;28;20210;-64
2023/08/06 09:17:53;;;;;;;0.17;0.17;;;;;;;;;;5086540;28;20210;-67
2023/08/06 09:20:20;;;;;;;0.13;0.13;;;;;;;;;;5090049;28;20669;-66
2023/08/06 09:22:49;;;;;;;0.17;0.17;;;;;;;;;;5089579;28;20268;-65
2023/08/06 09:25:23;;;;;;;0.10;0.10;;;;;;;;;;5084084;28;20727;-64
2023/08/06 09:27:51;;;;;;;0.10;0.10;;;;;;;;;;5088782;28;20206;-64
2023/08/06 09:30:30;;;;;;;0.10;0.10;;;;;;;;;;5089740;28;20714;-63
2023/08/06 09:32:57;;;;;;;0.17;0.17;;;;;;;;;;5088703;28;20310;-60
2023/08/06 09:35:24;;;;;;;0.10;0.10;;;;;;;;;;5088864;28;20210;-61
2023/08/06 09:37:53;;;;;;;0.10;0.10;;;;;;;;;;5087488;28;20206;-60
2023/08/06 09:40:27;;;;;;;0.10;0.10;;;;;;;;;;5084652;28;20214;-60
2023/08/06 09:42:54;;;;;;;1.85;0.20;;;;;;;;;;5088992;28;20760;-60
2023/08/06 09:45:22;;;;;;;0.10;0.10;;;;;;;;;;5088543;28;20226;-60
2023/08/06 09:47:49;;;;;;;0.20;0.20;;;;;;;;;;5072961;28;20283;-60
2023/08/06 09:50:17;;;;;;;0.20;0.20;;;;;;;;;;5083518;28;20214;-60
2023/08/06 09:52:44;;;;;;;0.13;0.13;;;;;;;;;;5083592;28;20646;-61
2023/08/06 09:55:13;;;;;;;1.02;0.43;;;;;;;;;;5069748;28;20207;-60
2023/08/06 09:57:41;;;;;;;0.20;0.20;;;;;;;;;;5078762;28;20206;-60
2023/08/06 10:00:09;;;;;;;0.10;0.10;;;;;;;;;;5088817;28;20273;-66
2023/08/06 10:02:37;;;;;;;0.15;0.15;;;;;;;;;;5088505;28;20226;-62
2023/08/06 10:05:04;;;;;;;0.10;0.10;;;;;;;;;;5088115;28;20218;-60
2023/08/06 10:07:32;;;;;;;0.20;0.15;;;;;;;;;;5088137;28;20254;-59
2023/08/06 10:09:59;;;;;;;0.15;0.13;;;;;;;;;;5084571;28;20728;-59
2023/08/06 10:12:54;;;;;;;0.10;0.10;;;;;;;;;;5083491;28;20202;-59
2023/08/06 10:15:23;;;;;;;0.10;0.10;;;;;;;;;;5069589;28;20276;-60
2023/08/06 10:17:52;;;;;;;0.52;0.20;;;;;;;;;;5085737;28;20210;-60
2023/08/06 10:20:21;;;;;;;0.50;0.50;;;;;;;;;;5088195;28;20225;-59
2023/08/06 10:22:48;;;;;;;0.13;0.13;;;;;;;;;;5085342;28;20214;-60
2023/08/06 10:25:18;;;;;;;0.10;0.10;;;;;;;;;;5088091;28;20235;-60
2023/08/06 10:27:55;;;;;;;0.15;0.15;;;;;;;;;;5077369;28;20202;-61
2023/08/06 10:30:27;;;;;;;0.10;0.10;;;;;;;;;;5069495;28;20233;-60
2023/08/06 10:32:56;;;;;;;1.30;0.10;;;;;;;;;;5087953;28;20234;-61
2023/08/06 10:35:30;;;;;;;0.30;0.30;;;;;;;;;;5088394;28;20195;-61
2023/08/06 10:38:04;;;;;;;0.20;0.20;;;;;;;;;;5087897;28;20210;-61
2023/08/06 10:40:32;;;;;;;0.17;0.17;;;;;;;;;;5087704;28;20203;-60
2023/08/06 10:43:00;;;;;;;0.13;0.10;;;;;;;;;;5087780;28;20232;-61
2023/08/06 10:45:30;;;;;;;0.10;0.10;;;;;;;;;;5084050;28;20955;-59
2023/08/06 10:47:57;;;;;;;0.10;0.10;;;;;;;;;;5087804;28;20207;-61
2023/08/06 10:50:25;;;;;;;0.10;0.10;;;;;;;;;;5087827;28;20237;-61
2023/08/06 10:52:52;;;;;;;0.38;0.15;;;;;;;;;;5087302;28;20214;-59
2023/08/06 10:55:26;;;;;;;0.20;0.20;;;;;;;;;;5087494;28;20210;-59
2023/08/06 10:57:53;;;;;;;0.17;0.17;;;;;;;;;;5087555;28;20217;-59
2023/08/06 11:00:20;;;;;;;0.10;0.10;;;;;;;;;;5087618;28;20210;-59
2023/08/06 11:02:49;;;;;;;0.15;0.15;;;;;;;;;;5084863;28;20214;-61
2023/08/06 11:05:17;;;;;;;0.10;0.10;;;;;;;;;;5087448;28;21024;-62
2023/08/06 11:07:44;;;;;;;0.52;0.13;;;;;;;;;;5087703;28;20202;-59
2023/08/06 11:10:12;;;;;;;0.20;0.20;;;;;;;;;;5086865;28;20206;-59
2023/08/06 11:12:39;;;;;;;0.95;0.20;;;;;;;;;;5087066;28;20258;-62
2023/08/06 11:15:07;;;;;;;0.05;0.05;;;;;;;;;;5087561;28;20214;-61
2023/08/06 11:17:34;;;;;;;0.20;0.20;;;;;;;;;;5085624;28;20211;-61
2023/08/06 11:20:03;;;;;;;0.00;0.00;;;;;;;;;;5084880;28;20213;-59
2023/08/06 11:22:30;;;;;;;0.10;0.00;;;;;;;;;;5086845;28;20217;-61
2023/08/06 11:24:58;;;;;;;0.10;0.10;;;;;;;;;;5087187;28;20222;-61
2023/08/06 11:27:27;;;;;;;0.70;0.10;;;;;;;;;;5084518;28;20309;-58
2023/08/06 11:29:54;;;;;;;1.65;0.00;;;;;;;;;;5085703;28;20225;-58
2023/08/06 11:32:21;;;;;;;0.25;0.00;;;;;;;;;;5085123;28;20245;-59
2023/08/06 11:34:48;;;;;;;0.98;0.08;;;;;;;;;;5086903;28;20587;-59
2023/08/06 11:37:17;;;;;;;0.20;0.20;;;;;;;;;;5071499;28;20211;-59
2023/08/06 11:39:47;;;;;;;0.03;0.03;;;;;;;;;;5066661;28;20211;-59
2023/08/06 11:42:14;;;;;;;0.85;0.28;;;;;;;;;;5066740;28;20207;-60
2023/08/06 11:44:45;;;;;;;0.00;0.00;;;;;;;;;;5066538;28;20237;-60
2023/08/06 11:47:14;;;;;;;0.00;0.00;;;;;;;;;;5066486;28;20203;-60
2023/08/06 11:49:44;;;;;;;0.17;0.17;;;;;;;;;;5066688;28;20208;-60
2023/08/06 11:52:20;;;;;;;0.93;0.10;;;;;;;;;;5078963;28;20225;-59
2023/08/06 11:54:48;;;;;;;0.10;0.10;;;;;;;;;;5086548;28;20271;-60
2023/08/06 11:57:15;;;;;;;0.30;0.08;;;;;;;;;;5090198;28;20225;-60
2023/08/06 11:59:46;;;;;;;0.20;0.20;;;;;;;;;;5091303;28;20216;-60
2023/08/06 12:02:13;;;;;;;0.10;0.10;;;;;;;;;;5091097;28;20553;-60
2023/08/06 12:05:04;;;;;;;0.00;0.00;;;;;;;;;;5090943;28;20332;-60
2023/08/06 12:07:32;;;;;;;0.10;0.10;;;;;;;;;;5091231;28;20202;-59
2023/08/06 12:10:00;;;;;;;0.10;0.10;;;;;;;;;;5090358;28;20220;-60
2023/08/06 12:12:27;;;;;;;0.10;0.10;;;;;;;;;;5090526;28;20232;-60
2023/08/06 12:14:54;;;;;;;0.60;0.30;;;;;;;;;;5090675;28;20205;-60
2023/08/06 12:17:21;;;;;;;0.25;0.25;;;;;;;;;;5090505;28;20670;-59
2023/08/06 12:19:49;;;;;;;0.75;0.20;;;;;;;;;;5090784;28;20210;-60
2023/08/06 12:22:16;;;;;;;0.17;0.13;;;;;;;;;;5090916;28;20210;-60
2023/08/06 12:24:45;;;;;;;0.10;0.10;;;;;;;;;;5090932;28;20429;-59
2023/08/06 12:27:12;;;;;;;0.20;0.20;;;;;;;;;;5090208;28;20685;-60
2023/08/06 12:29:42;;;;;;;0.22;0.20;;;;;;;;;;5085938;28;20205;-60
2023/08/06 12:32:09;;;;;;;0.10;0.10;;;;;;;;;;5086295;28;20241;-60
2023/08/06 12:34:36;;;;;;;0.10;0.10;;;;;;;;;;5088495;28;20198;-60
2023/08/06 12:37:03;;;;;;;1.23;0.20;;;;;;;;;;5089572;28;20210;-60
2023/08/06 12:39:31;;;;;;;0.20;0.20;;;;;;;;;;5089932;28;20230;-60
2023/08/06 12:41:59;;;;;;;0.57;0.20;;;;;;;;;;5089837;28;20212;-59
2023/08/06 12:44:26;;;;;;;0.40;0.40;;;;;;;;;;5090128;28;20235;-60
2023/08/06 12:46:54;;;;;;;0.40;0.40;;;;;;;;;;5089684;28;20213;-60
2023/08/06 12:49:22;;;;;;;0.28;0.28;;;;;;;;;;5089018;28;20210;-60
2023/08/06 12:51:49;;;;;;;0.30;0.30;;;;;;;;;;5089987;28;20210;-60
2023/08/06 12:54:18;;;;;;;0.40;0.40;;;;;;;;;;5089613;28;20241;-60
2023/08/06 12:56:45;;;;;;;0.30;0.30;;;;;;;;;;5089368;28;20222;-60
2023/08/06 12:59:13;;;;;;;2.08;0.35;;;;;;;;;;5087267;28;20207;-60
2023/08/06 13:01:40;;;;;;;0.20;0.20;;;;;;;;;;5089395;28;20213;-61
2023/08/06 13:04:07;;;;;;;0.20;0.20;;;;;;;;;;5084967;28;20221;-60
2023/08/06 13:06:36;;;;;;;0.40;0.40;;;;;;;;;;5086595;28;20214;-60
2023/08/06 13:09:04;;;;;;;0.35;0.35;;;;;;;;;;5086090;28;20221;-60
2023/08/06 13:11:31;;;;;;;0.50;0.50;;;;;;;;;;5089010;28;20751;-60
2023/08/06 13:14:00;;;;;;;0.50;0.22;;;;;;;;;;5089113;28;20536;-60
2023/08/06 13:16:29;;;;;;;0.28;0.28;;;;;;;;;;5088448;28;20199;-60
2023/08/06 13:18:56;;;;;;;0.25;0.25;;;;;;;;;;5088686;28;20692;-60
2023/08/06 13:21:23;;;;;;;0.43;0.32;;;;;;;;;;5089083;28;20218;-59
2023/08/06 13:23:50;;;;;;;0.52;0.50;;;;;;;;;;5088230;28;20202;-60
2023/08/06 13:26:17;;;;;;;0.40;0.40;;;;;;;;;;5088318;28;20570;-60
2023/08/06 13:28:44;;;;;;;0.85;0.30;;;;;;;;;;5073857;28;20295;-60
2023/08/06 13:31:11;;;;;;;0.20;0.20;;;;;;;;;;5076815;28;20620;-60
2023/08/06 13:33:40;;;;;;;3.60;0.43;;;;;;;;;;5075019;28;20215;-60
2023/08/06 13:36:07;;;;;;;0.40;0.40;;;;;;;;;;5077463;28;20680;-60
2023/08/06 13:38:35;;;;;;;1.58;0.40;;;;;;;;;;5080249;28;20278;-59
2023/08/06 13:41:03;;;;;;;1.75;0.30;;;;;;;;;;5086067;28;20290;-64
2023/08/06 13:43:30;;;;;;;0.20;0.20;;;;;;;;;;5080713;28;20736;-65
2023/08/06 13:45:57;;;;;;;0.40;0.40;;;;;;;;;;5069936;28;20226;-64
2023/08/06 13:48:24;;;;;;;0.30;0.30;;;;;;;;;;5085138;28;20198;-64
2023/08/06 13:50:52;;;;;;;0.30;0.30;;;;;;;;;;5079752;28;20223;-64
2023/08/06 13:53:19;;;;;;;0.30;0.30;;;;;;;;;;5088985;28;20232;-64
2023/08/06 13:55:46;;;;;;;0.20;0.20;;;;;;;;;;5088366;28;20209;-64
2023/08/06 13:58:13;;;;;;;0.20;0.20;;;;;;;;;;5088496;28;20210;-64
2023/08/06 14:00:41;;;;;;;0.57;0.20;;;;;;;;;;5084942;28;20203;-64
2023/08/06 14:03:09;;;;;;;0.20;0.20;;;;;;;;;;5083190;28;20206;-64
2023/08/06 14:05:36;;;;;;;0.10;0.10;;;;;;;;;;5087250;28;20214;-64
2023/08/06 14:08:04;;;;;;;0.13;0.13;;;;;;;;;;5088317;28;20227;-64
2023/08/06 14:10:32;;;;;;;0.25;0.25;;;;;;;;;;5088204;28;20994;-64
2023/08/06 14:12:59;;;;;;;0.20;0.20;;;;;;;;;;5073372;28;20681;-63
2023/08/06 14:15:26;;;;;;;0.22;0.20;;;;;;;;;;5067962;28;20696;-64
2023/08/06 14:17:53;;;;;;;0.20;0.20;;;;;;;;;;5087813;28;20677;-64
2023/08/06 14:20:20;;;;;;;0.10;0.10;;;;;;;;;;5087815;28;20528;-64
2023/08/06 14:22:47;;;;;;;0.20;0.20;;;;;;;;;;5087888;28;20848;-64
2023/08/06 14:25:15;;;;;;;0.70;0.20;;;;;;;;;;5087705;28;20222;-64
2023/08/06 14:27:42;;;;;;;0.20;0.20;;;;;;;;;;5087296;28;20202;-64
2023/08/06 14:30:10;;;;;;;0.20;0.20;;;;;;;;;;5087668;28;20206;-64
2023/08/06 14:32:37;;;;;;;1.45;0.22;;;;;;;;;;5087315;28;20249;-65
2023/08/06 14:35:04;;;;;;;0.32;0.25;;;;;;;;;;5083298;28;20213;-60
2023/08/06 14:37:31;;;;;;;0.68;0.20;;;;;;;;;;5080998;28;20198;-59
2023/08/06 14:39:59;;;;;;;1.08;0.32;;;;;;;;;;5082486;28;20206;-59
2023/08/06 14:42:27;;;;;;;1.67;0.20;;;;;;;;;;5080537;28;20206;-60
2023/08/06 14:44:54;;;;;;;0.10;0.10;;;;;;;;;;5074608;28;20226;-60
2023/08/06 14:47:21;;;;;;;0.10;0.10;;;;;;;;;;5083542;28;20229;-59
2023/08/06 14:49:49;;;;;;;0.70;0.10;;;;;;;;;;5083046;28;20198;-60